createdAt,value
2023-04-28T00:00:22.358Z,30.84
2023-04-28T00:00:53.812Z,30.88
2023-04-28T00:01:25.296Z,30.81
2023-04-28T00:01:56.683Z,30.89
2023-04-28T00:02:28.149Z,31.00
2023-04-28T00:03:01.825Z,30.87
2023-04-28T00:03:33.522Z,30.88
2023-04-28T00:04:05.363Z,30.87
2023-04-28T00:04:37.152Z,30.78
2023-04-28T00:05:08.755Z,30.76
2023-04-28T00:05:40.309Z,30.77
2023-04-28T00:06:14.096Z,30.61
2023-04-28T00:06:45.589Z,30.80
2023-04-28T00:07:17.023Z,30.92
2023-04-28T00:07:48.412Z,30.93
2023-04-28T00:08:19.786Z,30.97
2023-04-28T00:08:51.201Z,30.78
2023-04-28T00:09:22.673Z,31.03
2023-04-28T00:09:54.103Z,30.71
2023-04-28T00:10:25.556Z,30.76
2023-04-28T00:10:57.019Z,30.71
2023-04-28T00:11:28.516Z,30.87
2023-04-28T00:11:59.962Z,30.75
2023-04-28T00:12:31.405Z,30.78
2023-04-28T00:13:05.984Z,30.77
2023-04-28T00:13:37.420Z,30.84
2023-04-28T00:14:08.839Z,30.88
2023-04-28T00:14:40.292Z,30.95
2023-04-28T00:15:11.721Z,30.71
2023-04-28T00:15:43.202Z,30.71
2023-04-28T00:16:14.674Z,31.06
2023-04-28T00:16:46.515Z,30.86
2023-04-28T00:17:18.050Z,30.96
2023-04-28T00:17:49.576Z,30.88
2023-04-28T00:18:21.325Z,30.73
2023-04-28T00:18:55.572Z,30.69
2023-04-28T00:19:26.992Z,30.70
2023-04-28T00:19:58.509Z,30.75
2023-04-28T00:20:29.915Z,30.95
2023-04-28T00:21:01.403Z,30.95
2023-04-28T00:21:32.868Z,30.88
2023-04-28T00:22:04.417Z,30.85
2023-04-28T00:22:35.810Z,30.66
2023-04-28T00:23:07.360Z,30.75
2023-04-28T00:23:38.818Z,30.85
2023-04-28T00:24:10.256Z,30.86
2023-04-28T00:24:41.683Z,30.89
2023-04-28T00:25:13.144Z,30.74
2023-04-28T00:25:44.684Z,30.81
2023-04-28T00:26:16.132Z,30.73
2023-04-28T00:26:47.591Z,30.68
2023-04-28T00:27:18.975Z,30.82
2023-04-28T00:27:50.370Z,30.69
2023-04-28T00:28:33.567Z,30.92
2023-04-28T00:29:07.371Z,30.96
2023-04-28T00:29:38.807Z,31.07
2023-04-28T00:30:10.236Z,31.01
2023-04-28T00:30:41.616Z,30.91
2023-04-28T00:31:13.084Z,31.19
2023-04-28T00:31:44.570Z,30.96
2023-04-28T00:32:16.042Z,31.12
2023-04-28T00:32:47.511Z,31.04
2023-04-28T00:33:18.981Z,31.20
2023-04-28T00:33:50.391Z,31.13
2023-04-28T00:34:21.871Z,31.01
2023-04-28T00:34:53.314Z,30.99
2023-04-28T00:35:24.724Z,31.09
2023-04-28T00:35:56.220Z,30.97
2023-04-28T00:36:27.606Z,31.06
2023-04-28T00:36:59.005Z,30.96
2023-04-28T00:37:30.501Z,30.99
2023-04-28T00:38:01.935Z,30.80
2023-04-28T00:38:34.497Z,30.96
2023-04-28T00:39:05.907Z,31.04
2023-04-28T00:39:37.431Z,31.17
2023-04-28T00:40:08.865Z,30.99
2023-04-28T00:40:40.406Z,31.19
2023-04-28T00:41:11.845Z,31.08
2023-04-28T00:41:43.390Z,31.22
2023-04-28T00:42:14.760Z,31.11
2023-04-28T00:42:46.330Z,31.24
2023-04-28T00:43:17.806Z,31.07
2023-04-28T00:43:49.234Z,31.07
2023-04-28T00:44:20.732Z,31.09
2023-04-28T00:44:52.239Z,31.05
2023-04-28T00:45:23.706Z,31.10
2023-04-28T00:45:55.196Z,31.15
2023-04-28T00:46:26.736Z,30.99
2023-04-28T00:46:58.236Z,31.05
2023-04-28T00:47:29.665Z,31.08
2023-04-28T00:48:03.681Z,30.93
2023-04-28T00:48:37.895Z,30.91
2023-04-28T00:49:09.332Z,31.22
2023-04-28T00:49:40.807Z,31.14
2023-04-28T00:50:12.288Z,31.09
2023-04-28T00:50:43.700Z,31.09
2023-04-28T00:51:16.642Z,31.14
2023-04-28T00:51:48.093Z,31.06
2023-04-28T00:52:19.526Z,31.18
2023-04-28T00:52:50.954Z,31.08
2023-04-28T00:53:22.479Z,30.96
2023-04-28T00:53:53.900Z,30.98
2023-04-28T00:54:25.350Z,31.02
2023-04-28T00:54:56.779Z,31.41
2023-04-28T00:55:28.202Z,30.99
2023-04-28T00:55:59.682Z,31.08
2023-04-28T00:56:33.885Z,30.95
2023-04-28T00:57:05.395Z,31.36
2023-04-28T00:57:36.784Z,31.17
2023-04-28T00:58:08.253Z,31.31
2023-04-28T00:58:39.717Z,31.15
2023-04-28T00:59:11.247Z,31.25
2023-04-28T00:59:42.694Z,31.09
2023-04-28T01:00:14.190Z,31.23
2023-04-28T01:00:45.667Z,31.12
2023-04-28T01:01:17.099Z,31.16
2023-04-28T01:01:48.690Z,31.20
2023-04-28T01:02:20.233Z,31.23
2023-04-28T01:02:51.854Z,31.22
2023-04-28T01:03:23.534Z,31.38
2023-04-28T01:03:55.232Z,30.98
2023-04-28T01:04:26.904Z,31.34
2023-04-28T01:04:58.426Z,31.30
2023-04-28T01:05:29.878Z,31.30
2023-04-28T01:06:01.370Z,31.29
2023-04-28T01:06:32.795Z,31.16
2023-04-28T01:07:04.249Z,31.22
2023-04-28T01:07:35.918Z,31.35
2023-04-28T01:08:07.367Z,31.29
2023-04-28T01:08:38.858Z,31.42
2023-04-28T01:09:10.351Z,31.20
2023-04-28T01:09:41.831Z,31.39
2023-04-28T01:10:13.284Z,31.45
2023-04-28T01:10:44.709Z,31.50
2023-04-28T01:11:16.130Z,31.44
2023-04-28T01:11:47.500Z,31.25
2023-04-28T01:12:19.016Z,31.46
2023-04-28T01:12:50.479Z,31.60
2023-04-28T01:13:21.887Z,31.42
2023-04-28T01:13:53.360Z,31.31
2023-04-28T01:14:24.798Z,31.51
2023-04-28T01:14:56.259Z,31.55
2023-04-28T01:15:27.682Z,31.66
2023-04-28T01:15:59.108Z,31.49
2023-04-28T01:16:30.573Z,31.52
2023-04-28T01:17:02.108Z,31.65
2023-04-28T01:17:33.612Z,31.50
2023-04-28T01:18:05.055Z,31.75
2023-04-28T01:18:36.672Z,31.50
2023-04-28T01:19:08.073Z,31.62
2023-04-28T01:19:42.454Z,31.48
2023-04-28T01:20:13.962Z,31.51
2023-04-28T01:20:45.463Z,31.64
2023-04-28T01:21:16.844Z,31.79
2023-04-28T01:21:48.291Z,31.68
2023-04-28T01:22:19.750Z,31.71
2023-04-28T01:22:51.138Z,31.81
2023-04-28T01:23:22.603Z,31.71
2023-04-28T01:23:53.992Z,31.62
2023-04-28T01:24:27.975Z,31.72
2023-04-28T01:24:59.487Z,31.74
2023-04-28T01:25:30.879Z,31.74
2023-04-28T01:26:02.311Z,31.72
2023-04-28T01:26:33.826Z,31.77
2023-04-28T01:27:05.303Z,31.92
2023-04-28T01:27:36.800Z,31.67
2023-04-28T01:28:10.625Z,31.76
2023-04-28T01:28:42.038Z,31.87
2023-04-28T01:29:13.510Z,31.79
2023-04-28T01:29:44.914Z,31.86
2023-04-28T01:30:16.419Z,32.03
2023-04-28T01:30:47.836Z,31.86
2023-04-28T01:31:19.383Z,31.93
2023-04-28T01:31:50.802Z,31.84
2023-04-28T01:32:24.412Z,31.96
2023-04-28T01:32:55.935Z,31.94
2023-04-28T01:33:27.365Z,31.93
2023-04-28T01:33:58.805Z,31.90
2023-04-28T01:34:30.255Z,31.96
2023-04-28T01:35:01.678Z,32.07
2023-04-28T01:35:33.292Z,31.82
2023-04-28T01:36:04.745Z,31.85
2023-04-28T01:36:37.794Z,31.95
2023-04-28T01:37:09.417Z,32.08
2023-04-28T01:37:40.837Z,32.02
2023-04-28T01:38:12.282Z,32.13
2023-04-28T01:38:43.717Z,32.02
2023-04-28T01:39:17.139Z,31.89
2023-04-28T01:39:48.535Z,32.07
2023-04-28T01:40:19.936Z,31.99
2023-04-28T01:40:51.441Z,32.19
2023-04-28T01:41:22.853Z,32.16
2023-04-28T01:41:54.370Z,32.08
2023-04-28T01:42:27.996Z,31.94
2023-04-28T01:42:59.454Z,31.99
2023-04-28T01:43:30.881Z,32.01
2023-04-28T01:44:02.351Z,32.04
2023-04-28T01:44:33.717Z,31.86
2023-04-28T01:45:05.141Z,32.23
2023-04-28T01:45:36.598Z,31.95
2023-04-28T01:46:08.151Z,32.03
2023-04-28T01:46:39.677Z,31.92
2023-04-28T01:47:11.148Z,31.97
2023-04-28T01:47:42.633Z,32.04
2023-04-28T01:48:14.171Z,31.98
2023-04-28T01:48:45.638Z,31.93
2023-04-28T01:49:17.091Z,32.06
2023-04-28T01:49:48.553Z,32.04
2023-04-28T01:50:22.865Z,32.07
2023-04-28T01:50:54.295Z,32.15
2023-04-28T01:51:25.776Z,32.17
2023-04-28T01:51:57.280Z,31.95
2023-04-28T01:52:28.753Z,32.30
2023-04-28T01:53:00.309Z,32.22
2023-04-28T01:53:31.948Z,32.06
2023-04-28T01:54:03.422Z,32.07
2023-04-28T01:54:34.871Z,31.97
2023-04-28T01:55:06.470Z,32.00
2023-04-28T01:55:37.878Z,32.11
2023-04-28T01:56:09.413Z,32.27
2023-04-28T01:56:40.885Z,32.16
2023-04-28T01:57:12.313Z,32.22
2023-04-28T01:57:43.980Z,32.19
2023-04-28T01:58:15.404Z,32.32
2023-04-28T01:58:46.831Z,32.09
2023-04-28T01:59:21.306Z,32.33
2023-04-28T01:59:52.813Z,32.34
2023-04-28T02:00:24.221Z,32.27
2023-04-28T02:00:55.664Z,32.27
2023-04-28T02:01:29.712Z,32.45
2023-04-28T02:02:01.277Z,32.32
2023-04-28T02:02:32.896Z,32.31
2023-04-28T02:03:04.531Z,32.40
2023-04-28T02:03:36.347Z,32.34
2023-04-28T02:04:08.046Z,32.23
2023-04-28T02:04:39.819Z,32.32
2023-04-28T02:05:11.347Z,32.48
2023-04-28T02:05:42.865Z,32.36
2023-04-28T02:06:14.320Z,32.59
2023-04-28T02:06:45.734Z,32.66
2023-04-28T02:07:20.157Z,32.64
2023-04-28T02:07:51.655Z,32.63
2023-04-28T02:08:23.047Z,32.76
2023-04-28T02:08:54.463Z,32.66
2023-04-28T02:09:28.839Z,32.71
2023-04-28T02:10:00.277Z,32.69
2023-04-28T02:10:31.706Z,32.71
2023-04-28T02:11:03.202Z,32.87
2023-04-28T02:11:34.656Z,32.75
2023-04-28T02:12:06.109Z,32.93
2023-04-28T02:12:37.563Z,32.79
2023-04-28T02:13:08.938Z,32.94
2023-04-28T02:13:43.399Z,32.85
2023-04-28T02:14:14.958Z,32.69
2023-04-28T02:14:49.576Z,32.94
2023-04-28T02:15:20.988Z,32.74
2023-04-28T02:15:55.425Z,32.79
2023-04-28T02:16:26.948Z,33.01
2023-04-28T02:16:58.512Z,33.00
2023-04-28T02:17:29.907Z,32.91
2023-04-28T02:18:02.312Z,32.83
2023-04-28T02:18:33.775Z,32.92
2023-04-28T02:19:05.259Z,32.92
2023-04-28T02:19:36.685Z,32.78
2023-04-28T02:20:08.090Z,32.89
2023-04-28T02:20:39.560Z,32.81
2023-04-28T02:21:13.717Z,32.91
2023-04-28T02:21:45.136Z,32.82
2023-04-28T02:22:16.561Z,32.81
2023-04-28T02:22:48.015Z,32.84
2023-04-28T02:23:19.553Z,32.80
2023-04-28T02:23:50.989Z,32.90
2023-04-28T02:24:22.465Z,32.88
2023-04-28T02:24:54.030Z,32.77
2023-04-28T02:25:25.482Z,32.87
2023-04-28T02:25:56.942Z,32.85
2023-04-28T02:26:28.423Z,32.88
2023-04-28T02:26:59.822Z,32.83
2023-04-28T02:27:31.275Z,32.71
2023-04-28T02:28:02.750Z,32.79
2023-04-28T02:28:34.323Z,32.70
2023-04-28T02:29:05.751Z,32.91
2023-04-28T02:29:37.144Z,32.61
2023-04-28T02:30:08.552Z,32.86
2023-04-28T02:30:40.079Z,32.64
2023-04-28T02:31:11.523Z,32.74
2023-04-28T02:31:43.123Z,32.83
2023-04-28T02:32:14.544Z,32.95
2023-04-28T02:32:46.060Z,32.80
2023-04-28T02:33:17.506Z,32.89
2023-04-28T02:33:48.978Z,33.03
2023-04-28T02:34:20.483Z,32.92
2023-04-28T02:34:51.952Z,32.93
2023-04-28T02:35:23.436Z,32.96
2023-04-28T02:35:54.903Z,33.04
2023-04-28T02:36:26.377Z,33.14
2023-04-28T02:36:57.770Z,32.87
2023-04-28T02:37:29.214Z,33.09
2023-04-28T02:38:00.668Z,32.90
2023-04-28T02:38:32.122Z,32.99
2023-04-28T02:39:03.529Z,33.08
2023-04-28T02:39:35.027Z,33.16
2023-04-28T02:40:06.465Z,32.98
2023-04-28T02:40:37.917Z,33.06
2023-04-28T02:41:09.511Z,32.93
2023-04-28T02:41:41.135Z,33.12
2023-04-28T02:42:12.556Z,33.15
2023-04-28T02:42:44.000Z,33.42
2023-04-28T02:43:15.434Z,33.23
2023-04-28T02:43:46.866Z,33.23
2023-04-28T02:44:18.487Z,33.26
2023-04-28T02:44:49.983Z,33.08
2023-04-28T02:45:21.481Z,33.13
2023-04-28T02:45:52.913Z,33.16
2023-04-28T02:46:27.010Z,33.07
2023-04-28T02:46:58.531Z,33.38
2023-04-28T02:47:29.991Z,33.25
2023-04-28T02:48:01.504Z,33.32
2023-04-28T02:48:33.043Z,33.42
2023-04-28T02:49:04.500Z,33.47
2023-04-28T02:49:38.619Z,33.25
2023-04-28T02:50:10.168Z,33.40
2023-04-28T02:50:44.376Z,33.48
2023-04-28T02:51:18.496Z,33.45
2023-04-28T02:51:49.933Z,33.41
2023-04-28T02:52:24.275Z,33.36
2023-04-28T02:52:55.702Z,33.13
2023-04-28T02:53:27.153Z,33.33
2023-04-28T02:53:58.543Z,33.38
2023-04-28T02:54:29.951Z,33.30
2023-04-28T02:55:01.427Z,33.37
2023-04-28T02:55:32.903Z,33.37
2023-04-28T02:56:04.686Z,33.36
2023-04-28T02:56:36.133Z,33.30
2023-04-28T02:57:07.585Z,33.43
2023-04-28T02:57:41.950Z,33.41
2023-04-28T02:58:13.384Z,33.21
2023-04-28T02:58:44.901Z,33.15
2023-04-28T02:59:16.324Z,33.34
2023-04-28T02:59:47.753Z,33.51
2023-04-28T03:00:19.176Z,33.47
2023-04-28T03:00:53.798Z,33.25
2023-04-28T03:01:27.932Z,33.36
2023-04-28T03:01:59.360Z,33.26
2023-04-28T03:02:30.872Z,33.32
2023-04-28T03:03:02.542Z,33.26
2023-04-28T03:03:34.324Z,33.18
2023-04-28T03:04:06.132Z,33.26
2023-04-28T03:04:37.704Z,33.21
2023-04-28T03:05:09.088Z,33.36
2023-04-28T03:05:42.308Z,33.21
2023-04-28T03:06:13.777Z,33.17
2023-04-28T03:06:45.198Z,33.15
2023-04-28T03:07:16.623Z,33.26
2023-04-28T03:07:48.044Z,33.33
2023-04-28T03:08:19.501Z,33.35
2023-04-28T03:08:50.929Z,33.17
2023-04-28T03:09:22.438Z,33.15
2023-04-28T03:09:53.868Z,33.18
2023-04-28T03:10:25.400Z,33.00
2023-04-28T03:10:56.854Z,33.27
2023-04-28T03:11:28.414Z,33.20
2023-04-28T03:11:59.810Z,33.15
2023-04-28T03:12:31.280Z,33.24
2023-04-28T03:13:03.179Z,33.24
2023-04-28T03:13:34.642Z,33.08
2023-04-28T03:14:06.030Z,33.25
2023-04-28T03:14:37.552Z,33.09
2023-04-28T03:15:08.964Z,33.10
2023-04-28T03:15:40.422Z,33.33
2023-04-28T03:16:14.342Z,33.27
2023-04-28T03:16:46.457Z,32.99
2023-04-28T03:17:17.913Z,33.34
2023-04-28T03:17:50.531Z,33.07
2023-04-28T03:18:21.972Z,32.95
2023-04-28T03:18:56.362Z,33.06
2023-04-28T03:19:27.808Z,33.16
2023-04-28T03:19:59.278Z,33.12
2023-04-28T03:20:30.674Z,33.21
2023-04-28T03:21:02.178Z,32.99
2023-04-28T03:21:33.604Z,33.21
2023-04-28T03:22:07.972Z,33.12
2023-04-28T03:22:39.385Z,33.12
2023-04-28T03:23:10.815Z,33.31
2023-04-28T03:23:44.969Z,33.16
2023-04-28T03:24:16.800Z,33.13
2023-04-28T03:24:48.376Z,33.19
2023-04-28T03:25:22.449Z,33.19
2023-04-28T03:25:53.850Z,33.31
2023-04-28T03:26:25.316Z,33.15
2023-04-28T03:26:58.835Z,33.16
2023-04-28T03:27:30.446Z,33.19
2023-04-28T03:28:01.927Z,33.23
2023-04-28T03:28:36.287Z,33.04
2023-04-28T03:29:07.683Z,33.28
2023-04-28T03:29:39.082Z,33.22
2023-04-28T03:30:10.546Z,33.07
2023-04-28T03:30:41.947Z,33.31
2023-04-28T03:31:13.454Z,33.15
2023-04-28T03:31:44.870Z,33.22
2023-04-28T03:32:16.501Z,33.35
2023-04-28T03:32:48.238Z,33.22
2023-04-28T03:33:19.703Z,33.29
2023-04-28T03:33:51.123Z,33.31
2023-04-28T03:34:22.535Z,33.19
2023-04-28T03:34:53.924Z,33.41
2023-04-28T03:35:25.406Z,33.34
2023-04-28T03:35:56.819Z,33.57
2023-04-28T03:36:28.328Z,33.44
2023-04-28T03:36:59.773Z,33.42
2023-04-28T03:37:31.197Z,33.45
2023-04-28T03:38:02.713Z,33.32
2023-04-28T03:38:34.197Z,33.42
2023-04-28T03:39:05.645Z,33.46
2023-04-28T03:39:37.058Z,33.36
2023-04-28T03:40:08.453Z,33.41
2023-04-28T03:40:39.875Z,33.17
2023-04-28T03:41:11.331Z,33.39
2023-04-28T03:41:42.753Z,33.15
2023-04-28T03:42:14.190Z,33.15
2023-04-28T03:42:45.568Z,33.28
2023-04-28T03:43:19.574Z,33.19
2023-04-28T03:43:51.022Z,33.09
2023-04-28T03:44:22.509Z,33.07
2023-04-28T03:44:54.003Z,33.24
2023-04-28T03:45:25.494Z,33.12
2023-04-28T03:45:57.000Z,33.04
2023-04-28T03:46:28.580Z,33.19
2023-04-28T03:47:00.182Z,33.03
2023-04-28T03:47:31.595Z,33.20
2023-04-28T03:48:04.258Z,33.21
2023-04-28T03:48:35.780Z,33.16
2023-04-28T03:49:07.210Z,33.43
2023-04-28T03:49:38.621Z,33.32
2023-04-28T03:50:10.077Z,33.26
2023-04-28T03:50:41.498Z,33.16
2023-04-28T03:51:12.938Z,33.42
2023-04-28T03:51:44.396Z,33.26
2023-04-28T03:52:15.846Z,33.33
2023-04-28T03:52:47.414Z,33.25
2023-04-28T03:53:18.854Z,33.34
2023-04-28T03:53:50.406Z,33.38
2023-04-28T03:54:24.677Z,33.23
2023-04-28T03:54:56.073Z,33.38
2023-04-28T03:55:27.609Z,33.53
2023-04-28T03:55:59.053Z,33.42
2023-04-28T03:56:30.532Z,33.42
2023-04-28T03:57:01.977Z,33.37
2023-04-28T03:57:36.201Z,33.30
2023-04-28T03:58:07.658Z,33.41
2023-04-28T03:58:39.095Z,33.35
2023-04-28T03:59:10.490Z,33.33
2023-04-28T03:59:41.938Z,33.52
2023-04-28T04:00:13.332Z,33.47
2023-04-28T04:00:44.791Z,33.49
2023-04-28T04:01:22.558Z,33.49
2023-04-28T04:01:53.982Z,33.33
2023-04-28T04:02:25.575Z,33.36
2023-04-28T04:02:57.219Z,33.55
2023-04-28T04:03:29.215Z,33.42
2023-04-28T04:04:00.931Z,33.39
2023-04-28T04:04:33.105Z,33.14
2023-04-28T04:05:04.790Z,33.56
2023-04-28T04:05:36.621Z,33.42
2023-04-28T04:06:08.083Z,33.47
2023-04-28T04:06:39.505Z,33.24
2023-04-28T04:07:13.863Z,33.41
2023-04-28T04:07:45.274Z,33.29
2023-04-28T04:08:16.870Z,33.39
2023-04-28T04:08:48.371Z,33.50
2023-04-28T04:09:19.815Z,33.63
2023-04-28T04:09:51.340Z,33.40
2023-04-28T04:10:22.909Z,33.41
2023-04-28T04:10:54.320Z,33.31
2023-04-28T04:11:25.730Z,33.41
2023-04-28T04:11:57.174Z,33.38
2023-04-28T04:12:28.556Z,33.48
2023-04-28T04:12:59.986Z,33.39
2023-04-28T04:13:31.481Z,33.54
2023-04-28T04:14:02.889Z,33.32
2023-04-28T04:14:34.388Z,33.43
2023-04-28T04:15:05.902Z,33.57
2023-04-28T04:15:37.369Z,33.32
2023-04-28T04:16:08.939Z,33.47
2023-04-28T04:16:40.458Z,33.46
2023-04-28T04:17:11.853Z,33.65
2023-04-28T04:17:43.349Z,33.62
2023-04-28T04:18:17.757Z,33.65
2023-04-28T04:18:49.361Z,33.47
2023-04-28T04:19:20.758Z,33.46
2023-04-28T04:19:53.189Z,33.56
2023-04-28T04:20:24.700Z,33.66
2023-04-28T04:20:56.085Z,33.51
2023-04-28T04:21:27.520Z,33.36
2023-04-28T04:21:58.982Z,33.60
2023-04-28T04:22:30.492Z,33.55
2023-04-28T04:23:01.971Z,33.38
2023-04-28T04:23:33.416Z,33.39
2023-04-28T04:24:04.864Z,33.56
2023-04-28T04:24:36.303Z,33.58
2023-04-28T04:25:07.708Z,33.63
2023-04-28T04:25:39.189Z,33.45
2023-04-28T04:26:10.629Z,33.57
2023-04-28T04:26:44.787Z,33.51
2023-04-28T04:27:16.226Z,33.70
2023-04-28T04:27:47.647Z,33.51
2023-04-28T04:28:19.119Z,33.67
2023-04-28T04:28:53.315Z,33.61
2023-04-28T04:29:24.729Z,33.63
2023-04-28T04:29:56.187Z,33.65
2023-04-28T04:30:27.633Z,33.50
2023-04-28T04:30:59.165Z,33.73
2023-04-28T04:31:30.615Z,33.64
2023-04-28T04:32:02.028Z,33.46
2023-04-28T04:32:33.545Z,33.62
2023-04-28T04:33:05.097Z,33.49
2023-04-28T04:33:36.521Z,33.67
2023-04-28T04:34:07.920Z,33.74
2023-04-28T04:34:39.380Z,33.65
2023-04-28T04:35:13.782Z,33.59
2023-04-28T04:35:45.206Z,33.86
2023-04-28T04:36:16.648Z,33.54
2023-04-28T04:37:20.644Z,33.60
2023-04-28T04:37:52.066Z,33.69
2023-04-28T04:38:23.420Z,33.51
2023-04-28T04:38:54.878Z,33.59
2023-04-28T04:39:26.242Z,33.76
2023-04-28T04:39:57.620Z,33.63
2023-04-28T04:40:28.986Z,33.79
2023-04-28T04:41:00.336Z,33.70
2023-04-28T04:41:31.819Z,33.68
2023-04-28T04:42:13.296Z,33.61
2023-04-28T04:42:54.320Z,33.74
2023-04-28T04:43:25.702Z,33.63
2023-04-28T04:43:57.131Z,33.76
2023-04-28T04:44:28.497Z,33.68
2023-04-28T04:44:59.883Z,33.74
2023-04-28T04:45:31.274Z,33.67
2023-04-28T04:46:02.660Z,33.80
2023-04-28T04:46:34.126Z,33.72
2023-04-28T04:47:05.573Z,33.86
2023-04-28T04:47:36.982Z,33.81
2023-04-28T04:48:08.485Z,33.74
2023-04-28T04:48:39.939Z,33.67
2023-04-28T04:49:11.335Z,33.77
2023-04-28T04:49:42.728Z,33.78
2023-04-28T04:50:14.140Z,33.75
2023-04-28T04:50:45.624Z,33.71
2023-04-28T04:51:17.042Z,33.69
2023-04-28T04:51:48.560Z,33.83
2023-04-28T04:52:19.964Z,33.73
2023-04-28T04:52:51.413Z,33.63
2023-04-28T04:53:22.779Z,33.84
2023-04-28T04:53:54.126Z,33.72
2023-04-28T04:54:25.531Z,33.78
2023-04-28T04:54:56.944Z,33.77
2023-04-28T04:55:28.318Z,33.83
2023-04-28T04:55:59.700Z,33.95
2023-04-28T04:56:31.030Z,33.73
2023-04-28T04:57:02.460Z,33.72
2023-04-28T04:57:33.952Z,33.83
2023-04-28T04:58:05.324Z,33.83
2023-04-28T04:58:36.783Z,33.79
2023-04-28T04:59:08.163Z,33.56
2023-04-28T04:59:39.491Z,33.79
2023-04-28T05:00:10.969Z,34.00
2023-04-28T05:00:42.473Z,33.71
2023-04-28T05:01:13.828Z,33.79
2023-04-28T05:01:45.342Z,33.74
2023-04-28T05:02:16.836Z,33.68
2023-04-28T05:02:48.466Z,33.78
2023-04-28T05:03:20.056Z,33.90
2023-04-28T05:03:51.643Z,33.80
2023-04-28T05:04:23.566Z,33.98
2023-04-28T05:05:01.854Z,33.85
2023-04-28T05:05:39.902Z,33.96
2023-04-28T05:06:11.265Z,33.76
2023-04-28T05:06:42.666Z,33.76
2023-04-28T05:07:14.062Z,33.79
2023-04-28T05:07:45.482Z,33.74
2023-04-28T05:08:16.897Z,33.90
2023-04-28T05:08:48.333Z,33.78
2023-04-28T05:09:19.719Z,33.70
2023-04-28T05:09:51.082Z,33.73
2023-04-28T05:10:22.659Z,33.58
2023-04-28T05:10:54.048Z,33.84
2023-04-28T05:11:25.488Z,33.77
2023-04-28T05:11:56.862Z,33.66
2023-04-28T05:12:28.198Z,33.68
2023-04-28T05:12:59.590Z,33.67
2023-04-28T05:13:30.998Z,33.66
2023-04-28T05:14:02.384Z,33.58
2023-04-28T05:14:33.742Z,33.61
2023-04-28T05:15:05.050Z,33.73
2023-04-28T05:15:36.410Z,33.91
2023-04-28T05:16:07.890Z,33.70
2023-04-28T05:16:39.380Z,33.53
2023-04-28T05:17:10.896Z,33.67
2023-04-28T05:17:42.272Z,33.83
2023-04-28T05:18:13.733Z,33.98
2023-04-28T05:18:45.109Z,33.97
2023-04-28T05:19:16.521Z,33.81
2023-04-28T05:19:47.850Z,33.66
2023-04-28T05:20:19.252Z,33.92
2023-04-28T05:20:50.681Z,33.79
2023-04-28T05:21:22.092Z,33.84
2023-04-28T05:21:53.469Z,33.69
2023-04-28T05:22:24.864Z,33.81
2023-04-28T05:22:56.286Z,33.60
2023-04-28T05:23:27.748Z,33.85
2023-04-28T05:23:59.195Z,33.79
2023-04-28T05:24:30.553Z,33.87
2023-04-28T05:25:01.934Z,33.67
2023-04-28T05:25:33.332Z,33.80
2023-04-28T05:26:04.683Z,33.95
2023-04-28T05:26:36.046Z,33.86
2023-04-28T05:27:07.449Z,34.07
2023-04-28T05:27:38.797Z,33.90
2023-04-28T05:28:10.174Z,34.01
2023-04-28T05:28:41.638Z,33.84
2023-04-28T05:29:12.990Z,33.93
2023-04-28T05:29:44.432Z,33.77
2023-04-28T05:30:15.806Z,33.92
2023-04-28T05:30:47.184Z,33.87
2023-04-28T05:31:18.630Z,33.87
2023-04-28T05:31:50.099Z,33.77
2023-04-28T05:32:21.558Z,33.92
2023-04-28T05:32:53.072Z,33.74
2023-04-28T05:33:24.459Z,33.89
2023-04-28T05:33:55.875Z,33.87
2023-04-28T05:34:27.257Z,33.98
2023-04-28T05:34:58.653Z,33.99
2023-04-28T05:35:30.045Z,33.93
2023-04-28T05:36:01.411Z,33.78
2023-04-28T05:36:32.878Z,33.97
2023-04-28T05:37:04.261Z,33.99
2023-04-28T05:37:35.578Z,33.85
2023-04-28T05:38:06.970Z,34.01
2023-04-28T05:38:38.349Z,33.90
2023-04-28T05:39:09.725Z,33.91
2023-04-28T05:39:41.081Z,34.02
2023-04-28T05:40:12.456Z,33.82
2023-04-28T05:40:43.812Z,33.93
2023-04-28T05:41:15.217Z,34.02
2023-04-28T05:41:46.607Z,33.90
2023-04-28T05:42:18.081Z,33.93
2023-04-28T05:42:49.438Z,33.98
2023-04-28T05:43:20.795Z,34.19
2023-04-28T05:43:52.236Z,34.13
2023-04-28T05:44:23.676Z,34.18
2023-04-28T05:44:55.240Z,34.21
2023-04-28T05:45:26.597Z,34.30
2023-04-28T05:45:58.030Z,34.21
2023-04-28T05:46:31.212Z,34.30
2023-04-28T05:47:02.798Z,34.26
2023-04-28T05:47:34.213Z,34.30
2023-04-28T05:48:05.672Z,34.38
2023-04-28T05:48:37.074Z,34.32
2023-04-28T05:49:08.532Z,34.34
2023-04-28T05:49:39.947Z,34.36
2023-04-28T05:50:11.302Z,34.34
2023-04-28T05:50:42.736Z,34.32
2023-04-28T05:51:14.124Z,34.29
2023-04-28T05:51:45.504Z,34.35
2023-04-28T05:52:16.891Z,34.10
2023-04-28T05:52:48.278Z,34.42
2023-04-28T05:53:19.641Z,34.38
2023-04-28T05:53:51.036Z,34.29
2023-04-28T05:54:22.448Z,34.10
2023-04-28T05:54:53.882Z,34.08
2023-04-28T05:55:25.259Z,34.22
2023-04-28T05:55:56.917Z,34.25
2023-04-28T05:56:28.369Z,34.37
2023-04-28T05:57:01.415Z,34.23
2023-04-28T05:57:38.937Z,34.27
2023-04-28T05:58:20.949Z,34.36
2023-04-28T05:58:52.293Z,34.28
2023-04-28T05:59:23.662Z,34.35
2023-04-28T05:59:55.151Z,34.23
2023-04-28T06:00:26.483Z,34.28
2023-04-28T06:00:57.921Z,34.42
2023-04-28T06:01:29.297Z,34.18
2023-04-28T06:02:00.753Z,34.34
2023-04-28T06:02:32.486Z,34.14
2023-04-28T06:03:04.047Z,34.24
2023-04-28T06:03:35.768Z,34.36
2023-04-28T06:04:07.655Z,34.53
2023-04-28T06:04:39.509Z,34.46
2023-04-28T06:05:11.291Z,34.31
2023-04-28T06:05:43.044Z,34.37
2023-04-28T06:06:14.844Z,34.52
2023-04-28T06:06:46.260Z,34.44
2023-04-28T06:07:17.639Z,34.66
2023-04-28T06:07:50.242Z,34.45
2023-04-28T06:08:21.773Z,34.43
2023-04-28T06:08:53.238Z,34.53
2023-04-28T06:09:24.621Z,34.51
2023-04-28T06:09:55.980Z,34.40
2023-04-28T06:10:27.377Z,34.50
2023-04-28T06:10:58.760Z,34.47
2023-04-28T06:11:30.199Z,34.42
2023-04-28T06:12:01.646Z,34.50
2023-04-28T06:12:34.288Z,34.37
2023-04-28T06:13:05.671Z,34.52
2023-04-28T06:13:37.108Z,34.54
2023-04-28T06:14:08.509Z,34.42
2023-04-28T06:14:39.920Z,34.49
2023-04-28T06:15:11.326Z,34.43
2023-04-28T06:15:42.757Z,34.38
2023-04-28T06:16:14.249Z,34.45
2023-04-28T06:16:45.688Z,34.42
2023-04-28T06:17:17.169Z,34.51
2023-04-28T06:17:48.625Z,34.54
2023-04-28T06:18:20.089Z,34.42
2023-04-28T06:18:51.452Z,34.46
2023-04-28T06:19:22.802Z,34.59
2023-04-28T06:19:54.230Z,34.51
2023-04-28T06:20:25.588Z,34.52
2023-04-28T06:20:56.961Z,34.42
2023-04-28T06:21:28.381Z,34.54
2023-04-28T06:21:59.700Z,34.33
2023-04-28T06:22:31.158Z,34.22
2023-04-28T06:23:02.633Z,34.51
2023-04-28T06:23:34.027Z,34.41
2023-04-28T06:24:05.606Z,34.75
2023-04-28T06:24:37.006Z,34.45
2023-04-28T06:25:08.464Z,34.50
2023-04-28T06:25:39.880Z,34.38
2023-04-28T06:26:11.224Z,34.43
2023-04-28T06:26:42.619Z,34.67
2023-04-28T06:27:14.004Z,34.50
2023-04-28T06:27:45.461Z,34.42
2023-04-28T06:28:16.946Z,34.51
2023-04-28T06:28:48.317Z,34.65
2023-04-28T06:29:19.720Z,34.63
2023-04-28T06:29:51.148Z,34.71
2023-04-28T06:30:22.582Z,34.51
2023-04-28T06:30:53.972Z,34.42
2023-04-28T06:31:25.451Z,34.62
2023-04-28T06:31:56.975Z,34.56
2023-04-28T06:32:28.414Z,34.69
2023-04-28T06:32:59.916Z,34.59
2023-04-28T06:33:31.319Z,34.56
2023-04-28T06:34:02.722Z,34.57
2023-04-28T06:34:34.111Z,34.57
2023-04-28T06:35:05.575Z,34.77
2023-04-28T06:35:36.982Z,34.64
2023-04-28T06:36:08.363Z,34.61
2023-04-28T06:36:39.718Z,34.47
2023-04-28T06:37:11.079Z,34.67
2023-04-28T06:37:42.463Z,34.55
2023-04-28T06:38:14.987Z,34.52
2023-04-28T06:38:46.353Z,34.50
2023-04-28T06:39:17.721Z,34.56
2023-04-28T06:39:49.112Z,34.51
2023-04-28T06:40:20.568Z,34.55
2023-04-28T06:40:51.930Z,34.55
2023-04-28T06:41:23.398Z,34.47
2023-04-28T06:41:54.767Z,34.57
2023-04-28T06:42:27.071Z,34.32
2023-04-28T06:42:58.542Z,34.42
2023-04-28T06:43:30.111Z,34.48
2023-04-28T06:44:01.507Z,34.78
2023-04-28T06:44:34.293Z,34.65
2023-04-28T06:45:06.602Z,34.49
2023-04-28T06:45:38.083Z,34.63
2023-04-28T06:46:09.583Z,34.76
2023-04-28T06:46:40.982Z,34.50
2023-04-28T06:47:12.563Z,34.70
2023-04-28T06:47:43.986Z,34.52
2023-04-28T06:48:15.573Z,34.53
2023-04-28T06:48:46.949Z,34.60
2023-04-28T06:49:18.325Z,34.65